Terminal Aerodrome Forecast
Issued by NWS

Home | Current Version | Previous Version | Text Only | Print | Product List | Glossary On
Versions: 1 2 3 4 5 6 7 8 9 10 11 12 13 14 15 16
405
FTUS43 KIND 140522
TAFBMG
TAF
KBMG 140522Z 1406/1506 VRB04KT P6SM FEW050 OVC200
     FM140800 VRB04KT P6SM SCT050 OVC080
     FM141300 11009KT 3SM -SN BR OVC020
     FM141600 13013KT 1/2SM SN FZFG OVC007
     FM142200 14010KT 4SM -SHSN BR OVC009
      AMD LTD TO CLD VIS AND WIND TIL 141400=

USA.gov is the U.S. government's official web portal to all federal, state and local government web resources and services.